Tropical Cyclones
[Index]
Main Index Home Page Stock Weather Photos Extreme Storms Discussion Storm News and Storm Chasing Reports Tropical Cyclones / Hurricanes / Typhoons Weather Data and Links Wild Fires / Bushfires Weather Observation Techniques Weather Picture Catalogue Tornado Pictures and Reports Stock Video Footage and DVDs for sale
Season 1959-1960 Tropical Cyclone 195960_02 Track Map
Season 1959-1960 Summaries: [BoM-AU] [JTWC-AU] [JTWC-SIO] [JTWC-SPAC] [JTWC-SH]
<<- Previous TC | BoM 1959-1960 Season | Next TC ->>

click for intensity scale information  Lat/long Grid: Show Hide

 Date Labels: Show Hide

Bureau of Meteorology Tropical Cyclone Data

Name: 195960_02
Number: 323 / 195960_02

24 Dec 1959 21:00 UTC to 31 Dec 1959 23:00 UTC

    date/time    lat    long    hPa   cat  kts
1959-12-24 21   12.2   132.5    992    1                
1959-12-24 23   12.5   133.2    992    1                
1959-12-25 05   12.5   134.5    985    2                
1959-12-25 08   12.3   135.7    985    2                
1959-12-25 11   12.8   136.8    988    1                
1959-12-25 17   12.5   137.6    986    1                
1959-12-25 20   13.2   138.8    986    1                
1959-12-25 23   13.9   140.1    986    1                
1959-12-26 05   15.0   141.2    986    1                
1959-12-26 07   15.3   141.5    986    1                
1959-12-26 08   15.6   141.8    986    1                
1959-12-26 11   15.8   142.7    988    1                
1959-12-26 14   15.6   143.2    992    1                
1959-12-26 17   15.5   143.9    992    1                
1959-12-26 23   15.8   144.0    993    1                
1959-12-27 11   16.1   145.0    996                     
1959-12-27 17   16.1   145.3    997                     
1959-12-27 23   16.3   145.7    997                     
1959-12-28 05   16.6   146.0    998                     
1959-12-28 11   16.8   146.6    997                     
1959-12-28 17   17.8   147.0    997                     
1959-12-28 23   18.9   147.5    997                     
1959-12-29 05   18.7   148.6    995    1                
1959-12-29 08   18.5   149.5    995    1                
1959-12-29 11   18.5   150.0    995    1                
1959-12-29 17   18.7   151.2    994    1                
1959-12-29 23   18.7   152.6    992    1                
1959-12-30 05   18.7   153.9    990    1                
1959-12-30 11   18.6   154.9    990    1                
1959-12-30 17   18.2   156.5    990    1                
1959-12-30 23   18.0   158.0    990    1                
1959-12-31 05   17.9   159.5    990    1                
1959-12-31 11   17.8   161.0    990    1                
1959-12-31 17   17.7   162.6    990    1                
1959-12-31 23   17.5   164.0    990    1                
Winds are 10-min average.

Tropical cyclone tracks developed by Michael Bath using data from the Bureau of Meteorology and Google Maps.


[Australian Severe Weather index] [Copyright Notice] [Email Contacts] [Search This Site] [Privacy Policy]
Document: tropical_cyclone_195960_02.htm Updated: 30 May 2013